Kezdőlap
METAR-TAF:

METAR-TAF

Repülőterek :

Nalcsik, Oroszország

földrajzi szélesség: 43-30-46N, földrajzi hosszúság: 043-38-12E, magasság: 445 m

Jelenlegi meteorológiai megfigyelések

A jelentés 54 perccel ezelõtt készült, 22:00 UTC
Szélcsend
Hőmérséklet 3°C
Páratartalom 93%
Légköri nyomás 1025 hPa
Látótávolság: 2000 m
Borult 400 lábon
enyhe szitálás, Párásság

METAR: URMN 132200Z 00000MPS 2000 -DZ BR OVC004 03/02 Q1025 R24/////// NOSIG RMK MT OBSC OBST OBSC QFE732

Idő: 01:54 (22:54 UTC)

Előrejelzés

A jelentés 2 órával és 54 perccel ezelõtt készült, 20:00 UTC
Az előrejelzés 13-én 21 óra UTC és 14-én 06 óra UTC között érvényes
Északkeleti szél 6 kt széllökések: 16 kt
Látótávolság: 2000 m
Borult 400 lábon
szitálás, Párásság
13-én 21 óra UTC és 14-én 03 óra UTC között ideiglenes
Látótávolság: 0400 m
Borult 200 lábon
köd

TAF: URMN 132000Z 1321/1406 04003G08MPS 2000 DZ BR OVC004 TEMPO 1321/1403 0400 FG OVC002

Meteorológiai megfigyelések és előrejelzések több, mint 4000 repülőtéren (METAR és TAF jelentéseket).

A térképen piros és sárga pontok jelzik az elérhető meteorológiai állomásokat.

Mozgassa az egeret a pont fölött, hogy megjelenjen az állomás neve.

Azután kattintson az időjárási megfigyelések és előrejelzések megtekintéséhez.

A térkép megváltoztatása: kattintson a fekete keresztel jelölt zöld gombra ráközelítéshez, a vonallal jelölt zöld gombra távolításhoz, vagy a zöld nyilakra a szomszédos térképek eléréséhez.


METAR-TAF: